Thunder radar more information blitzortung!


Löydät sääaseman tiedot myös:

European Weather Network

Finland Weather Exchange

Weather Underground

AWEKAS



Weather Underground säähistoriasivu

Päivittäin yhteenveto Tammikuu 9, 2017 Yksiköt:  Molemmat    Englantilaiset   Metriset
« Edellinen Päivä
Seuraava Päivä »
Päivittäin Viikoittain Kuukausittain Vuosittain Mukautettu
  Korkea: Matala: Keskiarvo:
Lämpötila: TemperatureC °F /  -17.8 °C -1.4 °F /  -18.6 °C 0.9 °F /  -17.3 °C
Kastepiste: DewpointC °F /  -17.8 °C -2.2 °F /  -19 °C -0.3 °F /  -17.9 °C
Kosteus: Humidity % 86 % 91 %
Tuulen nopeus: WindSpeedKMH mph /  0 km/h - 2.1 mph /  3.4 km/h
Tuulenpuuska: WindSpeedGustKMH mph /  0 km/h - -
Tuuli:- - SW
Ilmanpaine: PressurehPa in /  0 hPa 1004.6 in /  34015.8 hPa -
Sade: 0.0 in /  0 mm    
Historical Graphs
 
 
Taulukkotiedot Tammikuu 9, 2017
Aika Lämpötila Kastepiste Ilmanpaine Tuuli Tuulen nopeus Tuulenpuuska Kosteus Sademäärä (tunneittain)
TemperatureC °F /  -17.8 °C DewpointC °F /  -17.8 °C PressurehPa in /  0 hPa Calm     Humidity % HourlyPrecipMM in /  0 mm
00:00 -1.2 °F /  -18.4 °C -2.1 °F /  -18.9 °C 1010.0 in /  34198.6 hPa SSW 6.4 mph /  10.3 km/h 9.7 mph /  15.6 km/h 94 % 0.0 in /  0 mm
00:15 -1.3 °F /  -18.5 °C -2.1 °F /  -18.9 °C 1010.4 in /  34212.1 hPa SW 3.2 mph /  5.1 km/h 8.0 mph /  12.9 km/h 94 % 0.0 in /  0 mm
00:30 -1.4 °F /  -18.6 °C -2.2 °F /  -19 °C 1010.4 in /  34212.1 hPa SSW 3.2 mph /  5.1 km/h 8.0 mph /  12.9 km/h 94 % 0.0 in /  0 mm
00:45 -1.3 °F /  -18.5 °C -2.2 °F /  -19 °C 1010.0 in /  34198.6 hPa SSW 6.4 mph /  10.3 km/h 11.3 mph /  18.2 km/h 94 % 0.0 in /  0 mm
01:00 -1.3 °F /  -18.5 °C -2.2 °F /  -19 °C 1010.0 in /  34198.6 hPa SSW 4.8 mph /  7.7 km/h 8.0 mph /  12.9 km/h 94 % 0.0 in /  0 mm
01:15 -1.3 °F /  -18.5 °C -2.2 °F /  -19 °C 1010.0 in /  34198.6 hPa SSW 1.6 mph /  2.6 km/h 6.4 mph /  10.3 km/h 94 % 0.0 in /  0 mm
01:30 -1.4 °F /  -18.6 °C -2.2 °F /  -19 °C 1010.4 in /  34212.1 hPa Calm   4.8 mph /  7.7 km/h 94 % 0.0 in /  0 mm
01:45 -1.3 °F /  -18.5 °C -2.0 °F /  -18.9 °C 1010.4 in /  34212.1 hPa WSW 3.2 mph /  5.1 km/h 11.3 mph /  18.2 km/h 95 % 0.0 in /  0 mm
02:00 -0.2 °F /  -17.9 °C -0.9 °F /  -18.3 °C 1010.4 in /  34212.1 hPa WSW 1.6 mph /  2.6 km/h 9.7 mph /  15.6 km/h 95 % 0.0 in /  0 mm
02:15 0.3 °F /  -17.6 °C -0.7 °F /  -18.2 °C 1010.4 in /  34212.1 hPa SW 3.2 mph /  5.1 km/h 9.7 mph /  15.6 km/h 93 % 0.0 in /  0 mm
02:30 0.7 °F /  -17.4 °C -0.5 °F /  -18.1 °C 1010.4 in /  34212.1 hPa SW 1.6 mph /  2.6 km/h 9.7 mph /  15.6 km/h 92 % 0.0 in /  0 mm
02:45 1.0 °F /  -17.2 °C -0.3 °F /  -17.9 °C 1010.4 in /  34212.1 hPa WSW 3.2 mph /  5.1 km/h 14.5 mph /  23.3 km/h 91 % 0.0 in /  0 mm
03:00 1.1 °F /  -17.2 °C -0.3 °F /  -17.9 °C 1010.0 in /  34198.6 hPa SW 4.8 mph /  7.7 km/h 9.7 mph /  15.6 km/h 90 % 0.0 in /  0 mm
03:15 1.2 °F /  -17.1 °C -0.4 °F /  -18 °C 1010.4 in /  34212.1 hPa West 4.8 mph /  7.7 km/h 17.7 mph /  28.5 km/h 89 % 0.0 in /  0 mm
03:30 1.2 °F /  -17.1 °C -0.4 °F /  -18 °C 1010.4 in /  34212.1 hPa West 4.8 mph /  7.7 km/h 16.1 mph /  25.9 km/h 89 % 0.0 in /  0 mm
03:45 1.2 °F /  -17.1 °C -0.4 °F /  -18 °C 1010.4 in /  34212.1 hPa WSW 6.4 mph /  10.3 km/h 19.3 mph /  31.1 km/h 89 % 0.0 in /  0 mm
04:00 1.2 °F /  -17.1 °C -0.4 °F /  -18 °C 1010.7 in /  34222.3 hPa West 6.4 mph /  10.3 km/h 17.7 mph /  28.5 km/h 89 % 0.0 in /  0 mm
04:15 1.1 °F /  -17.2 °C -0.5 °F /  -18.1 °C 1010.7 in /  34222.3 hPa SW 3.2 mph /  5.1 km/h 12.9 mph /  20.8 km/h 89 % 0.0 in /  0 mm
04:30 1.1 °F /  -17.2 °C -0.6 °F /  -18.1 °C 1010.7 in /  34222.3 hPa SSW 4.8 mph /  7.7 km/h 11.3 mph /  18.2 km/h 89 % 0.0 in /  0 mm
04:45 1.1 °F /  -17.2 °C -0.5 °F /  -18.1 °C 1010.4 in /  34212.1 hPa SW 4.8 mph /  7.7 km/h 12.9 mph /  20.8 km/h 89 % 0.0 in /  0 mm
05:00 1.2 °F /  -17.1 °C -0.6 °F /  -18.1 °C 1010.4 in /  34212.1 hPa SW 4.8 mph /  7.7 km/h 16.1 mph /  25.9 km/h 88 % 0.0 in /  0 mm
05:15 1.2 °F /  -17.1 °C -0.6 °F /  -18.1 °C 1010.4 in /  34212.1 hPa SW 4.8 mph /  7.7 km/h 12.9 mph /  20.8 km/h 88 % 0.0 in /  0 mm
05:30 1.2 °F /  -17.1 °C -0.6 °F /  -18.1 °C 1010.4 in /  34212.1 hPa SW 3.2 mph /  5.1 km/h 12.9 mph /  20.8 km/h 88 % 0.0 in /  0 mm
05:45 1.1 °F /  -17.2 °C -0.7 °F /  -18.2 °C 1010.0 in /  34198.6 hPa SSW 3.2 mph /  5.1 km/h 12.9 mph /  20.8 km/h 88 % 0.0 in /  0 mm
06:00 1.2 °F /  -17.1 °C -0.6 °F /  -18.1 °C 1010.0 in /  34198.6 hPa SSW 3.2 mph /  5.1 km/h 11.3 mph /  18.2 km/h 88 % 0.0 in /  0 mm
06:15 1.2 °F /  -17.1 °C -0.5 °F /  -18.1 °C 1009.7 in /  34188.4 hPa SW 3.2 mph /  5.1 km/h 9.7 mph /  15.6 km/h 88 % 0.0 in /  0 mm
06:30 1.2 °F /  -17.1 °C -0.7 °F /  -18.2 °C 1009.7 in /  34188.4 hPa SSW 3.2 mph /  5.1 km/h 9.7 mph /  15.6 km/h 87 % 0.0 in /  0 mm
06:45 1.2 °F /  -17.1 °C -0.5 °F /  -18.1 °C 1009.7 in /  34188.4 hPa SSW 4.8 mph /  7.7 km/h 9.7 mph /  15.6 km/h 88 % 0.0 in /  0 mm
07:00 1.3 °F /  -17.1 °C -0.5 °F /  -18.1 °C 1009.4 in /  34178.3 hPa SSW 3.2 mph /  5.1 km/h 11.3 mph /  18.2 km/h 88 % 0.0 in /  0 mm
07:15 1.4 °F /  -17 °C -0.5 °F /  -18.1 °C 1009.4 in /  34178.3 hPa SSW 3.2 mph /  5.1 km/h 11.3 mph /  18.2 km/h 87 % 0.0 in /  0 mm
07:30 1.5 °F /  -16.9 °C -0.4 °F /  -18 °C 1009.7 in /  34188.4 hPa SSW 4.8 mph /  7.7 km/h 12.9 mph /  20.8 km/h 87 % 0.0 in /  0 mm
07:45 1.1 °F /  -17.2 °C -0.7 °F /  -18.2 °C 1009.7 in /  34188.4 hPa SSW 1.6 mph /  2.6 km/h 9.7 mph /  15.6 km/h 88 % 0.0 in /  0 mm
08:00 0.8 °F /  -17.3 °C -0.8 °F /  -18.2 °C 1009.7 in /  34188.4 hPa SSW 1.6 mph /  2.6 km/h 8.0 mph /  12.9 km/h 89 % 0.0 in /  0 mm
08:15 0.6 °F /  -17.4 °C -1.0 °F /  -18.3 °C 1009.7 in /  34188.4 hPa South 1.6 mph /  2.6 km/h 6.4 mph /  10.3 km/h 89 % 0.0 in /  0 mm
08:30 0.3 °F /  -17.6 °C -1.1 °F /  -18.4 °C 1009.7 in /  34188.4 hPa Calm   4.8 mph /  7.7 km/h 90 % 0.0 in /  0 mm
08:45 0.3 °F /  -17.6 °C -1.0 °F /  -18.3 °C 1009.7 in /  34188.4 hPa SW 1.6 mph /  2.6 km/h 6.4 mph /  10.3 km/h 91 % 0.0 in /  0 mm
09:00 0.2 °F /  -17.7 °C -1.1 °F /  -18.4 °C 1009.4 in /  34178.3 hPa Calm   3.2 mph /  5.1 km/h 91 % 0.0 in /  0 mm
09:15 0.2 °F /  -17.7 °C -1.1 °F /  -18.4 °C 1009.0 in /  34164.7 hPa SSW 3.2 mph /  5.1 km/h 8.0 mph /  12.9 km/h 91 % 0.0 in /  0 mm
09:30 0.4 °F /  -17.6 °C -0.9 °F /  -18.3 °C 1009.0 in /  34164.7 hPa SSW 3.2 mph /  5.1 km/h 6.4 mph /  10.3 km/h 91 % 0.0 in /  0 mm
09:45 0.4 °F /  -17.6 °C -0.9 °F /  -18.3 °C 1009.0 in /  34164.7 hPa SSW 3.2 mph /  5.1 km/h 11.3 mph /  18.2 km/h 91 % 0.0 in /  0 mm
10:00 0.6 °F /  -17.4 °C -0.7 °F /  -18.2 °C 1009.4 in /  34178.3 hPa SSW 3.2 mph /  5.1 km/h 11.3 mph /  18.2 km/h 91 % 0.0 in /  0 mm
10:15 0.8 °F /  -17.3 °C -0.5 °F /  -18.1 °C 1009.0 in /  34164.7 hPa SSW 6.4 mph /  10.3 km/h 12.9 mph /  20.8 km/h 91 % 0.0 in /  0 mm
10:30 1.2 °F /  -17.1 °C -0.3 °F /  -17.9 °C 1009.4 in /  34178.3 hPa SSW 6.4 mph /  10.3 km/h 17.7 mph /  28.5 km/h 90 % 0.0 in /  0 mm
10:45 1.4 °F /  -17 °C -0.1 °F /  -17.8 °C 1009.4 in /  34178.3 hPa SSW 8.0 mph /  12.9 km/h 17.7 mph /  28.5 km/h 90 % 0.0 in /  0 mm
11:00 1.6 °F /  -16.9 °C 0.1 °F /  -17.7 °C 1009.0 in /  34164.7 hPa SSW 8.0 mph /  12.9 km/h 17.7 mph /  28.5 km/h 90 % 0.0 in /  0 mm
11:15 1.7 °F /  -16.8 °C 0.2 °F /  -17.7 °C 1009.0 in /  34164.7 hPa SSW 4.8 mph /  7.7 km/h 14.5 mph /  23.3 km/h 90 % 0.0 in /  0 mm
11:30 1.8 °F /  -16.8 °C 0.3 °F /  -17.6 °C 1009.0 in /  34164.7 hPa SW 4.8 mph /  7.7 km/h 14.5 mph /  23.3 km/h 90 % 0.0 in /  0 mm
11:45 1.9 °F /  -16.7 °C 0.3 °F /  -17.6 °C 1008.7 in /  34154.6 hPa SSW 4.8 mph /  7.7 km/h 11.3 mph /  18.2 km/h 89 % 0.0 in /  0 mm
12:00 2.0 °F /  -16.7 °C 0.2 °F /  -17.7 °C 1008.7 in /  34154.6 hPa SSW 6.4 mph /  10.3 km/h 17.7 mph /  28.5 km/h 88 % 0.0 in /  0 mm
12:15 1.9 °F /  -16.7 °C 0.2 °F /  -17.7 °C 1008.4 in /  34144.4 hPa SW 4.8 mph /  7.7 km/h 12.9 mph /  20.8 km/h 88 % 0.0 in /  0 mm
12:30 2.2 °F /  -16.6 °C 0.4 °F /  -17.6 °C 1008.4 in /  34144.4 hPa SSW 4.8 mph /  7.7 km/h 14.5 mph /  23.3 km/h 88 % 0.0 in /  0 mm
12:45 2.3 °F /  -16.5 °C 0.4 °F /  -17.6 °C 1008.4 in /  34144.4 hPa SSW 4.8 mph /  7.7 km/h 12.9 mph /  20.8 km/h 87 % 0.0 in /  0 mm
13:00 2.4 °F /  -16.4 °C 0.3 °F /  -17.6 °C 1008.4 in /  34144.4 hPa Calm     86 % 0.0 in /  0 mm
13:15 2.4 °F /  -16.4 °C 0.3 °F /  -17.6 °C 1008.4 in /  34144.4 hPa Calm     86 % 0.0 in /  0 mm
13:30 2.3 °F /  -16.5 °C 0.4 °F /  -17.6 °C 1008.4 in /  34144.4 hPa Calm     87 % 0.0 in /  0 mm
13:45 2.3 °F /  -16.5 °C 0.5 °F /  -17.5 °C 1008.0 in /  34130.9 hPa Calm     88 % 0.0 in /  0 mm
14:00 2.2 °F /  -16.6 °C 0.4 °F /  -17.6 °C 1008.0 in /  34130.9 hPa Calm     88 % 0.0 in /  0 mm
14:15 2.2 °F /  -16.6 °C 0.5 °F /  -17.5 °C 1008.0 in /  34130.9 hPa Calm     89 % 0.0 in /  0 mm
14:30 2.0 °F /  -16.7 °C 0.4 °F /  -17.6 °C 1008.0 in /  34130.9 hPa Calm     89 % 0.0 in /  0 mm
14:45 1.9 °F /  -16.7 °C 0.4 °F /  -17.6 °C 1008.0 in /  34130.9 hPa Calm     90 % 0.0 in /  0 mm
15:00 1.8 °F /  -16.8 °C 0.3 °F /  -17.6 °C 1007.7 in /  34120.7 hPa Calm     90 % 0.0 in /  0 mm
15:15 1.6 °F /  -16.9 °C 0.1 °F /  -17.7 °C 1007.7 in /  34120.7 hPa Calm     90 % 0.0 in /  0 mm
15:30 1.4 °F /  -17 °C 0.1 °F /  -17.7 °C 1007.3 in /  34107.2 hPa Calm     91 % 0.0 in /  0 mm
15:45 1.1 °F /  -17.2 °C -0.2 °F /  -17.9 °C 1007.3 in /  34107.2 hPa Calm     91 % 0.0 in /  0 mm
16:00 0.7 °F /  -17.4 °C -0.6 °F /  -18.1 °C 1007.3 in /  34107.2 hPa Calm     91 % 0.0 in /  0 mm
16:15 0.6 °F /  -17.4 °C -0.5 °F /  -18.1 °C 1007.3 in /  34107.2 hPa Calm     92 % 0.0 in /  0 mm
16:30 0.6 °F /  -17.4 °C -0.6 °F /  -18.1 °C 1007.0 in /  34097 hPa Calm     92 % 0.0 in /  0 mm
16:45 0.6 °F /  -17.4 °C -0.4 °F /  -18 °C 1007.0 in /  34097 hPa Calm     93 % 0.0 in /  0 mm
17:00 0.6 °F /  -17.4 °C -0.4 °F /  -18 °C 1007.0 in /  34097 hPa Calm     93 % 0.0 in /  0 mm
17:15 0.7 °F /  -17.4 °C -0.1 °F /  -17.8 °C 1007.0 in /  34097 hPa Calm     94 % 0.0 in /  0 mm
17:30 1.1 °F /  -17.2 °C 0.2 °F /  -17.7 °C 1007.0 in /  34097 hPa Calm     94 % 0.0 in /  0 mm
17:45 1.2 °F /  -17.1 °C 0.4 °F /  -17.6 °C 1007.0 in /  34097 hPa Calm     94 % 0.0 in /  0 mm
18:00 1.3 °F /  -17.1 °C 0.5 °F /  -17.5 °C 1007.0 in /  34097 hPa Calm     94 % 0.0 in /  0 mm
18:15 1.3 °F /  -17.1 °C 0.5 °F /  -17.5 °C 1007.0 in /  34097 hPa Calm     94 % 0.0 in /  0 mm
18:30 1.1 °F /  -17.2 °C 0.4 °F /  -17.6 °C 1007.0 in /  34097 hPa Calm     95 % 0.0 in /  0 mm
18:45 0.9 °F /  -17.3 °C 0.2 °F /  -17.7 °C 1006.7 in /  34086.9 hPa Calm     95 % 0.0 in /  0 mm
19:00 0.8 °F /  -17.3 °C 0.1 °F /  -17.7 °C 1006.7 in /  34086.9 hPa Calm     95 % 0.0 in /  0 mm
19:15 0.6 °F /  -17.4 °C -0.1 °F /  -17.8 °C 1006.3 in /  34073.3 hPa Calm     95 % 0.0 in /  0 mm
19:30 0.5 °F /  -17.5 °C -0.1 °F /  -17.8 °C 1006.3 in /  34073.3 hPa Calm     96 % 0.0 in /  0 mm
19:45 0.4 °F /  -17.6 °C -0.2 °F /  -17.9 °C 1006.3 in /  34073.3 hPa Calm     96 % 0.0 in /  0 mm
20:00 0.3 °F /  -17.6 °C -0.3 °F /  -17.9 °C 1006.3 in /  34073.3 hPa Calm     96 % 0.0 in /  0 mm
20:15 0.3 °F /  -17.6 °C -0.3 °F /  -17.9 °C 1006.0 in /  34063.2 hPa Calm     96 % 0.0 in /  0 mm
20:30 0.3 °F /  -17.6 °C -0.1 °F /  -17.8 °C 1006.0 in /  34063.2 hPa Calm     97 % 0.0 in /  0 mm
20:45 0.3 °F /  -17.6 °C -0.1 °F /  -17.8 °C 1005.6 in /  34049.6 hPa Calm     97 % 0.0 in /  0 mm
21:00 0.4 °F /  -17.6 °C 0.0 °F /  -17.8 °C 1005.6 in /  34049.6 hPa Calm     97 % 0.0 in /  0 mm
21:15 0.5 °F /  -17.5 °C 0.1 °F /  -17.7 °C 1005.6 in /  34049.6 hPa Calm     97 % 0.0 in /  0 mm
21:30 0.6 °F /  -17.4 °C 0.1 °F /  -17.7 °C 1005.6 in /  34049.6 hPa Calm     97 % 0.0 in /  0 mm
21:45 0.7 °F /  -17.4 °C 0.2 °F /  -17.7 °C 1005.6 in /  34049.6 hPa Calm     97 % 0.0 in /  0 mm
22:00 0.7 °F /  -17.4 °C 0.3 °F /  -17.6 °C 1005.6 in /  34049.6 hPa Calm     97 % 0.0 in /  0 mm
22:15 0.8 °F /  -17.3 °C 0.4 °F /  -17.6 °C 1005.3 in /  34039.5 hPa Calm     97 % 0.0 in /  0 mm
22:30 0.8 °F /  -17.3 °C 0.4 °F /  -17.6 °C 1005.3 in /  34039.5 hPa Calm     97 % 0.0 in /  0 mm
22:45 0.9 °F /  -17.3 °C 0.5 °F /  -17.5 °C 1005.0 in /  34029.3 hPa Calm     97 % 0.0 in /  0 mm
23:00 0.9 °F /  -17.3 °C 0.5 °F /  -17.5 °C 1004.6 in /  34015.8 hPa Calm     97 % 0.0 in /  0 mm
23:15 0.9 °F /  -17.3 °C 0.5 °F /  -17.5 °C 1004.6 in /  34015.8 hPa Calm     97 % 0.0 in /  0 mm
23:30 0.9 °F /  -17.3 °C 0.5 °F /  -17.5 °C 1004.6 in /  34015.8 hPa Calm     97 % 0.0 in /  0 mm
23:45 0.9 °F /  -17.3 °C 0.5 °F /  -17.5 °C 1004.6 in /  34015.8 hPa Calm     97 % 0.0 in /  0 mm
Esan sääasema
Terveisin Weather Underground - 2.75 mb

Alkuperäinen skripti  Jim McMurry - jmcmurry@mwt.net Sovitettu myös templatelle  Wim van der Kuil - Leuven-Template.eu

Laitteet joita käytämme:

Sääasema
Davis VP2

Sääasemaohjelma
Cumulus

Sääaseman tietokone
Asus EeePC

Palveluntarjoaja
Suncomet

Davis VP2

Cumulus

Asus EeePC

Suncomet